Time;durP1;ratioP1;P1;durP2;ratioP2;P2;SDS_P1;SDS_P2;PMS_P1;PMS_P2;Temp;Humidity;BMP_temperature;BMP_pressure;BME280_temperature;BME280_humidity;BME280_pressure;Samples;Min_cycle;Max_cycle;Signal;HPM_P1;HPM_P2
2022/09/15 00:01:16;;;;;;;1.15;1.05;;;;;;;28.51;44.34;100833.53;5057428;28;20109;-49
2022/09/15 00:03:44;;;;;;;3.42;1.42;;;;;;;28.56;44.23;100837.03;5066935;28;20021;-50
2022/09/15 00:06:13;;;;;;;1.48;0.88;;;;;;;28.50;44.14;100829.16;5073201;28;20025;-49
2022/09/15 00:08:42;;;;;;;1.42;0.90;;;;;;;28.50;44.11;100837.97;5052751;28;20045;-51
2022/09/15 00:11:23;;;;;;;1.42;0.90;;;;;;;28.49;44.11;100836.22;5075355;28;20031;-50
2022/09/15 00:13:52;;;;;;;1.23;0.88;;;;;;;28.52;44.39;100837.06;5069690;28;20028;-50
2022/09/15 00:16:22;;;;;;;1.05;0.70;;;;;;;28.52;44.08;100845.00;5069978;28;20111;-50
2022/09/15 00:18:51;;;;;;;1.10;0.80;;;;;;;28.52;44.18;100839.72;5064625;28;20154;-48
2022/09/15 00:21:22;;;;;;;1.52;1.00;;;;;;;28.49;43.86;100845.88;5067432;28;20596;-51
2022/09/15 00:23:51;;;;;;;1.10;0.90;;;;;;;28.47;44.10;100843.25;5069751;28;20029;-52
2022/09/15 00:26:23;;;;;;;1.38;0.90;;;;;;;28.43;44.19;100833.59;5069715;28;20037;-50
2022/09/15 00:28:51;;;;;;;1.30;0.77;;;;;;;28.45;44.06;100837.13;5066211;28;20025;-49
2022/09/15 00:31:22;;;;;;;1.65;0.70;;;;;;;28.43;43.95;100835.38;5068620;28;20098;-51
2022/09/15 00:33:52;;;;;;;1.73;0.90;;;;;;;28.46;44.09;100843.28;5064778;28;20032;-47
2022/09/15 00:36:21;;;;;;;1.10;0.80;;;;;;;28.44;43.85;100835.34;5068145;28;20031;-48
2022/09/15 00:38:50;;;;;;;1.58;1.00;;;;;;;28.43;44.03;100838.88;5066370;28;20432;-49
2022/09/15 00:41:21;;;;;;;2.53;0.80;;;;;;;28.40;44.07;100836.25;5053170;28;20127;-48
2022/09/15 00:44:01;;;;;;;5.72;0.90;;;;;;;28.33;44.16;100835.44;5069620;28;20033;-51
2022/09/15 00:46:34;;;;;;;1.95;1.15;;;;;;;28.35;43.93;100846.84;5072300;28;20038;-49
2022/09/15 00:49:06;;;;;;;1.05;0.80;;;;;;;28.33;44.14;100845.13;5073110;28;20475;-48
2022/09/15 00:51:57;;;;;;;1.02;0.60;;;;;;;28.32;44.28;100849.50;5052208;28;20073;-52
2022/09/15 00:54:41;;;;;;;2.03;0.85;;;;;;;28.31;43.95;100853.03;5057152;28;20050;-56
2022/09/15 00:57:14;;;;;;;0.93;0.77;;;;;;;28.28;43.94;100844.28;5072962;28;20024;-51
2022/09/15 00:59:44;;;;;;;3.40;0.90;;;;;;;28.31;44.13;100855.66;5056049;28;20771;-48
2022/09/15 01:02:20;;;;;;;2.67;1.00;;;;;;;28.30;43.98;100860.97;5076819;28;20447;-48
2022/09/15 01:04:50;;;;;;;0.73;0.65;;;;;;;28.35;44.04;100849.50;5066853;28;20035;-48
2022/09/15 01:07:24;;;;;;;1.20;0.85;;;;;;;28.33;43.73;100850.41;5071381;28;20035;-48
2022/09/15 01:09:57;;;;;;;2.05;0.80;;;;;;;28.32;43.70;100859.22;5056760;28;20033;-49
2022/09/15 01:12:26;;;;;;;1.55;0.65;;;;;;;28.32;43.69;100856.56;5053949;28;20032;-48
2022/09/15 01:14:55;;;;;;;1.15;0.70;;;;;;;28.29;43.71;100861.84;5050501;28;20487;-49
2022/09/15 01:17:51;;;;;;;1.08;0.80;;;;;;;28.29;43.82;100856.59;5073217;28;20501;-48
2022/09/15 01:20:39;;;;;;;1.80;1.02;;;;;;;28.27;44.04;100867.16;5061133;28;20548;-48
2022/09/15 01:23:45;;;;;;;2.53;0.70;;;;;;;28.28;43.82;100863.63;5079722;28;20065;-49
2022/09/15 01:26:51;;;;;;;1.50;0.70;;;;;;;28.20;44.12;100866.31;5060013;28;20072;-49
2022/09/15 01:29:33;;;;;;;2.15;0.82;;;;;;;28.24;43.74;100872.44;5067077;28;20055;-50
2022/09/15 01:35:17;;;;;;;1.25;0.75;;;;;;;28.20;43.70;100857.53;5070964;28;20078;-48
2022/09/15 01:37:53;;;;;;;1.60;0.60;;;;;;;28.20;43.66;100862.78;5066321;28;20039;-48
2022/09/15 01:40:23;;;;;;;0.70;0.55;;;;;;;28.18;43.96;100869.84;5053936;28;20483;-48
2022/09/15 01:42:52;;;;;;;1.67;0.68;;;;;;;28.13;43.59;100861.97;5048711;28;20737;-49
2022/09/15 01:45:24;;;;;;;1.52;0.70;;;;;;;28.13;44.02;100866.38;5066557;28;20146;-46
2022/09/15 01:47:54;;;;;;;2.00;0.68;;;;;;;28.13;43.72;100867.22;5059233;28;20499;-46
2022/09/15 01:50:26;;;;;;;1.40;0.80;;;;;;;28.13;43.99;100867.22;5070271;28;20032;-46
2022/09/15 01:52:56;;;;;;;0.90;0.50;;;;;;;28.07;44.01;100861.09;5072564;28;20036;-48
2022/09/15 01:55:38;;;;;;;1.23;0.68;;;;;;;28.11;43.93;100868.16;5078324;28;20123;-50
2022/09/15 01:58:07;;;;;;;1.02;0.60;;;;;;;28.13;43.94;100875.16;5074198;28;20390;-48
2022/09/15 02:00:41;;;;;;;1.20;0.65;;;;;;;28.04;43.78;100862.00;5071728;28;20105;-52
2022/09/15 02:03:17;;;;;;;2.08;0.70;;;;;;;28.08;43.79;100868.97;5052883;28;20100;-49
2022/09/15 02:06:01;;;;;;;4.07;0.80;;;;;;;28.09;43.94;100875.16;5059580;28;20036;-52
2022/09/15 02:08:38;;;;;;;0.90;0.60;;;;;;;28.09;43.89;100873.38;5055464;28;20068;-53
2022/09/15 02:11:19;;;;;;;1.75;0.90;;;;;;;28.08;43.73;100878.66;5072226;28;20047;-50
2022/09/15 02:14:11;;;;;;;1.60;0.50;;;;;;;28.03;43.80;100870.78;5070891;28;20040;-48
2022/09/15 02:16:41;;;;;;;1.13;0.70;;;;;;;28.02;43.70;100871.69;5064644;28;20047;-48
2022/09/15 02:19:16;;;;;;;1.17;0.50;;;;;;;28.00;43.73;100869.03;5071302;28;20610;-48
2022/09/15 02:21:49;;;;;;;2.05;0.63;;;;;;;28.03;43.73;100876.94;5077791;28;20040;-50
2022/09/15 02:24:22;;;;;;;2.22;0.50;;;;;;;28.03;43.76;100871.66;5053022;28;20028;-50
2022/09/15 02:26:53;;;;;;;1.60;1.02;;;;;;;27.99;43.71;100872.53;5067194;28;20056;-51
2022/09/15 02:29:22;;;;;;;3.05;0.80;;;;;;;27.99;43.62;100875.19;5054964;28;20036;-48
2022/09/15 02:31:53;;;;;;;0.85;0.52;;;;;;;27.98;43.86;100872.56;5047710;28;20127;-51
2022/09/15 02:34:25;;;;;;;2.17;0.50;;;;;;;27.94;43.65;100877.00;5070188;28;20368;-48
2022/09/15 02:36:55;;;;;;;1.45;0.70;;;;;;;27.96;43.53;100876.97;5047178;28;20395;-49
2022/09/15 02:39:29;;;;;;;1.05;0.68;;;;;;;27.88;43.69;100871.75;5060176;28;20459;-49
2022/09/15 02:41:59;;;;;;;2.30;0.70;;;;;;;27.94;43.61;100878.72;5072256;28;20027;-52
2022/09/15 02:44:29;;;;;;;1.88;0.65;;;;;;;27.94;43.58;100878.72;5067965;28;20502;-50
2022/09/15 02:46:59;;;;;;;2.42;1.10;;;;;;;27.92;43.82;100889.31;5073903;28;20143;-48
2022/09/15 02:49:27;;;;;;;2.20;0.80;;;;;;;27.86;43.85;100882.31;5077563;28;20031;-49
2022/09/15 02:51:57;;;;;;;1.38;0.60;;;;;;;27.92;43.70;100893.69;5073680;28;20035;-51
2022/09/15 02:54:26;;;;;;;1.83;0.80;;;;;;;27.87;43.79;100891.06;5066021;28;20032;-48
2022/09/15 02:56:54;;;;;;;2.30;0.82;;;;;;;27.82;43.76;100892.84;5071046;28;20115;-48
2022/09/15 02:59:23;;;;;;;3.92;0.77;;;;;;;27.80;43.50;100898.13;5078171;28;20554;-51
2022/09/15 03:01:52;;;;;;;3.63;0.90;;;;;;;27.84;43.80;100899.88;5073135;28;20028;-53
2022/09/15 03:04:20;;;;;;;0.73;0.50;;;;;;;27.86;43.75;100899.88;5083423;28;20024;-48
2022/09/15 03:06:49;;;;;;;1.38;0.60;;;;;;;27.85;43.54;100898.09;5078401;28;20954;-47
2022/09/15 03:09:18;;;;;;;0.57;0.50;;;;;;;27.83;43.66;100899.88;5071490;28;20033;-49
2022/09/15 03:11:46;;;;;;;2.50;0.80;;;;;;;27.84;43.39;100899.00;5071308;28;20032;-48
2022/09/15 03:14:14;;;;;;;1.27;0.73;;;;;;;27.84;43.63;100901.63;5071228;28;20024;-48
2022/09/15 03:16:43;;;;;;;1.80;0.60;;;;;;;27.77;43.76;100903.41;5071674;28;20020;-48
2022/09/15 03:19:12;;;;;;;1.40;0.70;;;;;;;27.81;43.49;100902.53;5070871;28;20047;-48
2022/09/15 03:21:40;;;;;;;1.23;0.73;;;;;;;27.77;43.65;100897.28;5070764;28;20039;-49
2022/09/15 03:24:09;;;;;;;2.92;1.00;;;;;;;27.74;43.64;100912.22;5051651;28;20028;-51
2022/09/15 03:26:38;;;;;;;2.40;0.77;;;;;;;27.75;43.63;100905.16;5069587;28;20384;-48
2022/09/15 03:29:06;;;;;;;1.48;0.85;;;;;;;27.78;43.49;100912.22;5070015;28;20055;-48
2022/09/15 03:31:35;;;;;;;3.38;0.88;;;;;;;27.72;43.53;100905.19;5075197;28;20032;-50
2022/09/15 03:34:04;;;;;;;4.10;1.25;;;;;;;27.71;43.43;100912.22;5070244;28;20492;-52
2022/09/15 03:36:33;;;;;;;1.00;0.70;;;;;;;27.68;43.48;100906.09;5071892;28;20458;-52
2022/09/15 03:39:01;;;;;;;1.08;0.85;;;;;;;27.66;43.85;100903.44;5072083;28;20090;-50
2022/09/15 03:41:29;;;;;;;2.03;0.73;;;;;;;27.64;43.39;100897.31;5067186;28;20032;-50
2022/09/15 03:43:58;;;;;;;1.85;0.70;;;;;;;27.62;43.43;100885.91;5071724;28;20086;-52
2022/09/15 03:46:26;;;;;;;1.27;0.63;;;;;;;27.60;43.42;100903.50;5071005;28;20103;-52
2022/09/15 03:48:55;;;;;;;1.13;0.70;;;;;;;27.60;43.63;100903.50;5070065;28;20051;-50
2022/09/15 03:51:23;;;;;;;2.17;0.80;;;;;;;27.64;43.61;100906.97;5072529;28;20040;-52
2022/09/15 03:53:52;;;;;;;1.63;0.80;;;;;;;27.60;43.28;100914.03;5070725;28;20506;-50
2022/09/15 03:56:25;;;;;;;1.92;0.90;;;;;;;27.52;43.60;100916.69;5072473;28;20029;-54
2022/09/15 03:58:54;;;;;;;2.00;0.68;;;;;;;27.58;43.44;100921.06;5072486;28;20438;-51
2022/09/15 04:01:22;;;;;;;1.98;0.82;;;;;;;27.59;43.50;100925.44;5065521;28;20037;-52
2022/09/15 04:03:51;;;;;;;3.65;0.73;;;;;;;27.56;43.48;100930.72;5072469;28;20029;-51
2022/09/15 04:06:22;;;;;;;2.58;0.82;;;;;;;27.51;43.49;100928.09;5070788;28;20383;-50
2022/09/15 04:08:51;;;;;;;2.97;0.80;;;;;;;27.53;43.25;100934.25;5056144;28;20085;-50
2022/09/15 04:11:21;;;;;;;1.35;0.68;;;;;;;27.59;43.28;100928.09;5054848;28;20028;-49
2022/09/15 04:13:49;;;;;;;3.35;1.08;;;;;;;27.57;43.06;100929.84;5067413;28;20038;-51
2022/09/15 04:16:22;;;;;;;3.67;1.00;;;;;;;27.58;43.13;100936.88;5069187;28;20410;-50
2022/09/15 04:18:50;;;;;;;2.47;1.05;;;;;;;27.55;43.09;100935.09;5070071;28;20461;-53
2022/09/15 04:21:21;;;;;;;1.50;0.75;;;;;;;27.51;43.06;100932.47;5071348;28;20069;-52
2022/09/15 04:23:50;;;;;;;4.93;1.17;;;;;;;27.48;43.12;100936.00;5071637;28;20178;-49
2022/09/15 04:26:22;;;;;;;3.92;0.93;;;;;;;27.43;42.96;100928.09;5067619;28;20104;-53
2022/09/15 04:28:50;;;;;;;1.35;0.70;;;;;;;27.47;43.12;100928.13;5070254;28;20036;-49
2022/09/15 04:31:19;;;;;;;2.55;1.10;;;;;;;27.50;43.03;100923.72;5067745;28;20027;-50
2022/09/15 04:33:48;;;;;;;2.83;0.98;;;;;;;27.51;43.10;100924.59;5072638;28;20474;-48
2022/09/15 04:36:18;;;;;;;2.88;0.80;;;;;;;27.48;43.11;100929.84;5071510;28;20067;-51
2022/09/15 04:38:47;;;;;;;3.50;1.00;;;;;;;27.52;43.16;100931.59;5071139;28;20035;-50
2022/09/15 04:41:16;;;;;;;1.27;0.70;;;;;;;27.48;42.86;100922.84;5074029;28;20082;-50
2022/09/15 04:43:44;;;;;;;2.10;0.95;;;;;;;27.51;42.65;100930.75;5069797;28;20059;-48
2022/09/15 04:46:13;;;;;;;1.42;0.93;;;;;;;27.42;42.94;100918.44;5075210;28;20055;-49
2022/09/15 04:48:41;;;;;;;3.97;0.80;;;;;;;27.44;42.86;100924.59;5068619;28;20410;-48
2022/09/15 04:51:13;;;;;;;1.83;0.70;;;;;;;27.44;42.75;100929.84;5068903;28;20036;-48
2022/09/15 04:53:42;;;;;;;3.38;1.10;;;;;;;27.38;42.75;100932.47;5056375;28;20036;-50
2022/09/15 04:56:12;;;;;;;5.07;1.00;;;;;;;27.40;42.99;100929.84;5069233;28;20073;-48
2022/09/15 04:58:42;;;;;;;1.25;0.73;;;;;;;27.39;42.74;100938.63;5063065;28;20449;-51
2022/09/15 05:01:13;;;;;;;4.05;1.10;;;;;;;27.38;42.79;100939.53;5067142;28;20395;-50
2022/09/15 05:03:42;;;;;;;1.90;0.80;;;;;;;27.38;42.83;100947.44;5071069;28;20020;-51
2022/09/15 05:06:11;;;;;;;2.85;0.80;;;;;;;27.34;42.92;100943.91;5067414;28;20036;-50
2022/09/15 05:08:40;;;;;;;2.45;1.08;;;;;;;27.38;42.56;100940.38;5064595;28;20036;-48
2022/09/15 05:11:11;;;;;;;2.10;0.90;;;;;;;27.37;42.55;100945.66;5064099;28;20028;-48
2022/09/15 05:13:40;;;;;;;1.50;0.75;;;;;;;27.34;42.66;100945.66;5069071;28;20925;-49
2022/09/15 05:16:11;;;;;;;2.67;0.70;;;;;;;27.31;43.06;100943.91;5070696;28;20033;-50
2022/09/15 05:18:39;;;;;;;2.10;0.95;;;;;;;27.35;42.66;100940.38;5069745;28;20101;-46
2022/09/15 05:21:09;;;;;;;1.67;0.63;;;;;;;27.33;42.63;100936.88;5069695;28;20028;-48
2022/09/15 05:23:38;;;;;;;2.03;0.80;;;;;;;27.29;42.78;100938.66;5074608;28;20067;-49
2022/09/15 05:26:09;;;;;;;4.10;0.80;;;;;;;27.33;42.45;100946.53;5071030;28;20070;-47
2022/09/15 05:28:38;;;;;;;3.08;1.27;;;;;;;27.38;42.50;100957.97;5046117;28;20040;-48
2022/09/15 05:31:12;;;;;;;1.08;0.80;;;;;;;27.26;42.53;100945.69;5070199;28;20039;-51
2022/09/15 05:33:41;;;;;;;4.38;0.90;;;;;;;27.28;42.47;100952.69;5045762;28;20028;-52
2022/09/15 05:36:09;;;;;;;2.47;1.17;;;;;;;27.28;42.43;100965.00;5063496;28;20028;-56
2022/09/15 05:38:38;;;;;;;2.90;1.00;;;;;;;27.21;42.51;100952.69;5073173;28;20028;-49
2022/09/15 05:41:08;;;;;;;3.67;1.23;;;;;;;27.21;42.35;100957.97;5067589;28;20037;-54
2022/09/15 05:43:37;;;;;;;5.60;1.38;;;;;;;27.09;42.56;100932.50;5073953;28;20025;-50
2022/09/15 05:46:06;;;;;;;3.30;1.30;;;;;;;27.21;42.66;100957.97;5072688;28;20033;-51
2022/09/15 05:48:33;;;;;;;1.35;0.80;;;;;;;27.14;42.82;100968.50;5077747;28;20089;-52
2022/09/15 05:51:02;;;;;;;5.25;0.90;;;;;;;27.05;43.01;100960.59;5049752;28;20036;-50
2022/09/15 05:53:31;;;;;;;2.00;0.82;;;;;;;27.13;42.74;100972.03;5074058;28;20033;-55
2022/09/15 05:56:01;;;;;;;4.28;1.42;;;;;;;27.12;42.73;100970.28;5067592;28;20028;-55
2022/09/15 05:58:30;;;;;;;1.63;1.00;;;;;;;27.06;42.80;100969.38;5056286;28;20024;-52
2022/09/15 06:01:06;;;;;;;3.97;1.00;;;;;;;27.06;42.80;100964.09;5074152;28;20079;-51
2022/09/15 06:03:35;;;;;;;2.83;1.10;;;;;;;27.08;42.79;100979.03;5072062;28;20493;-58
2022/09/15 06:06:05;;;;;;;4.95;1.45;;;;;;;27.08;43.01;100983.41;5071380;28;20474;-51
2022/09/15 06:08:35;;;;;;;3.95;1.50;;;;;;;27.06;42.80;100995.69;5072665;28;20082;-50
2022/09/15 06:11:05;;;;;;;4.43;1.30;;;;;;;27.05;42.80;101000.09;5072277;28;20114;-55
2022/09/15 06:13:33;;;;;;;3.08;1.20;;;;;;;27.03;42.79;100995.72;5054281;28;20059;-52
2022/09/15 06:16:04;;;;;;;1.83;1.13;;;;;;;27.02;42.83;100991.34;5073249;28;20021;-51
2022/09/15 06:18:31;;;;;;;2.72;1.30;;;;;;;27.06;42.79;100993.06;5066199;28;20101;-50
2022/09/15 06:21:08;;;;;;;1.73;1.08;;;;;;;26.98;43.06;100990.44;5065936;28;20130;-49
2022/09/15 06:23:36;;;;;;;8.80;1.50;;;;;;;26.99;43.00;100995.72;5078861;28;20114;-51
2022/09/15 06:26:07;;;;;;;2.78;1.10;;;;;;;27.06;42.72;100995.69;5071515;28;20537;-52
2022/09/15 06:28:35;;;;;;;2.10;1.23;;;;;;;27.06;42.70;101006.22;5074904;28;20119;-49
2022/09/15 06:31:04;;;;;;;7.18;1.33;;;;;;;27.09;42.84;101016.78;5072095;28;20473;-49
2022/09/15 06:33:32;;;;;;;4.40;1.40;;;;;;;27.03;42.79;101008.88;5072094;28;20060;-52
2022/09/15 06:36:01;;;;;;;6.18;1.45;;;;;;;27.04;42.86;101019.41;5054140;28;20041;-52
2022/09/15 06:38:31;;;;;;;4.68;1.70;;;;;;;27.06;42.70;101014.13;5072187;28;20051;-50
2022/09/15 06:41:00;;;;;;;2.63;1.30;;;;;;;27.04;42.78;101013.28;5074855;28;20028;-48
2022/09/15 06:43:30;;;;;;;3.72;1.48;;;;;;;27.05;42.91;101026.44;5071297;28;20081;-48
2022/09/15 06:46:03;;;;;;;5.55;1.70;;;;;;;27.04;42.96;101036.97;5071591;28;20116;-53
2022/09/15 06:48:32;;;;;;;1.60;1.20;;;;;;;27.03;42.72;101038.72;5077655;28;20406;-52
2022/09/15 06:51:01;;;;;;;3.38;1.60;;;;;;;27.02;43.00;101038.72;5070300;28;20081;-49
2022/09/15 06:53:30;;;;;;;2.55;1.30;;;;;;;27.00;42.92;101041.34;5071353;28;20485;-49
2022/09/15 06:56:11;;;;;;;3.95;1.33;;;;;;;26.97;43.19;101047.47;5071227;28;20849;-48
2022/09/15 06:58:41;;;;;;;2.80;1.42;;;;;;;26.98;43.20;101029.91;5071088;28;20169;-51
2022/09/15 07:01:12;;;;;;;1.55;1.23;;;;;;;27.03;42.81;101057.16;5070510;28;20033;-48
2022/09/15 07:03:44;;;;;;;1.60;1.27;;;;;;;27.02;43.10;101046.63;5070767;28;20054;-50
2022/09/15 07:06:13;;;;;;;4.38;1.40;;;;;;;26.99;43.10;101052.75;5053298;28;20024;-50
2022/09/15 07:08:42;;;;;;;2.95;1.17;;;;;;;27.00;43.15;101049.22;5075922;28;20149;-47
2022/09/15 07:11:11;;;;;;;3.90;1.58;;;;;;;27.02;43.08;101051.88;5075568;28;20023;-48
2022/09/15 07:13:40;;;;;;;2.95;1.35;;;;;;;26.99;43.01;101051.00;5075384;28;20055;-53
2022/09/15 07:16:11;;;;;;;6.10;1.75;;;;;;;26.97;43.05;101059.78;5075735;28;20040;-50
2022/09/15 07:18:39;;;;;;;3.60;1.00;;;;;;;27.02;43.15;101065.91;5071437;28;20037;-51
2022/09/15 07:21:11;;;;;;;1.90;1.27;;;;;;;27.06;43.03;101065.06;5069119;28;20067;-47
2022/09/15 07:23:43;;;;;;;3.70;1.80;;;;;;;27.05;43.07;101079.09;5073306;28;20419;-48
2022/09/15 07:26:13;;;;;;;4.40;1.20;;;;;;;27.01;43.18;101071.19;5073913;28;20036;-48
2022/09/15 07:28:43;;;;;;;5.07;1.15;;;;;;;27.06;43.22;101079.97;5076760;28;20147;-49
2022/09/15 07:31:14;;;;;;;2.83;1.40;;;;;;;27.04;43.09;101087.88;5058089;28;20264;-50
2022/09/15 07:33:43;;;;;;;4.05;1.88;;;;;;;27.07;42.93;101090.50;5071725;28;20544;-53
2022/09/15 07:36:11;;;;;;;8.32;1.77;;;;;;;27.03;42.56;101085.25;5056776;28;20033;-50
2022/09/15 07:38:41;;;;;;;3.75;1.90;;;;;;;27.03;42.34;101078.22;5070029;28;20023;-52
2022/09/15 07:41:13;;;;;;;7.60;2.25;;;;;;;27.04;42.04;101087.88;5067466;28;20193;-51
2022/09/15 07:43:45;;;;;;;6.03;2.40;;;;;;;27.06;41.97;101086.13;5070009;28;20048;-52
2022/09/15 07:46:13;;;;;;;3.67;1.60;;;;;;;27.09;41.91;101096.66;5070279;28;20040;-54
2022/09/15 07:48:43;;;;;;;4.00;1.60;;;;;;;27.03;42.01;101086.09;5066570;28;20402;-52
2022/09/15 07:51:12;;;;;;;3.33;1.20;;;;;;;27.03;42.01;101086.09;5068534;28;20551;-53
2022/09/15 07:53:39;;;;;;;9.20;2.65;;;;;;;27.09;41.82;101096.66;5073906;28;20033;-52
2022/09/15 07:56:08;;;;;;;4.15;2.42;;;;;;;27.09;41.90;101101.94;5070917;28;20027;-51
2022/09/15 07:58:36;;;;;;;4.75;1.98;;;;;;;27.09;41.73;101101.03;5070616;28;20028;-52
2022/09/15 08:01:06;;;;;;;4.10;2.08;;;;;;;27.10;41.74;101114.22;5049231;28;20033;-52
2022/09/15 08:03:33;;;;;;;6.78;2.15;;;;;;;27.14;41.37;101121.22;5067402;28;20048;-51
2022/09/15 08:06:02;;;;;;;3.75;2.25;;;;;;;27.08;41.51;101113.34;5069477;28;20454;-51
2022/09/15 08:08:30;;;;;;;4.20;1.70;;;;;;;27.03;41.43;101117.69;5069626;28;20024;-52
2022/09/15 08:10:59;;;;;;;4.55;2.20;;;;;;;27.09;41.28;101119.47;5074795;28;20036;-51
2022/09/15 08:13:28;;;;;;;5.25;2.15;;;;;;;27.05;41.50;101121.22;5074684;28;20024;-52
2022/09/15 08:15:57;;;;;;;6.35;2.33;;;;;;;26.99;41.47;101123.81;5074784;28;20174;-53
2022/09/15 08:18:25;;;;;;;6.82;1.90;;;;;;;26.93;41.65;101122.06;5074677;28;20027;-55
2022/09/15 08:20:54;;;;;;;5.65;1.90;;;;;;;27.02;41.39;101130.88;5069629;28;20137;-52
2022/09/15 08:23:23;;;;;;;4.07;1.70;;;;;;;27.09;41.46;101130.88;5069159;28;20143;-52
2022/09/15 08:25:51;;;;;;;6.75;1.98;;;;;;;27.20;41.40;101133.56;5071366;28;20032;-49
2022/09/15 08:28:20;;;;;;;5.30;1.92;;;;;;;27.24;41.13;101130.03;5069341;28;20056;-52
2022/09/15 08:30:47;;;;;;;4.65;2.00;;;;;;;27.30;41.41;101135.31;5069372;28;20047;-53
2022/09/15 08:33:16;;;;;;;2.38;1.35;;;;;;;27.29;41.54;101140.59;5075577;28;20031;-51
2022/09/15 08:35:45;;;;;;;4.18;1.70;;;;;;;27.33;41.56;101138.84;5075467;28;20130;-51
2022/09/15 08:38:12;;;;;;;3.45;1.80;;;;;;;27.38;41.60;101137.09;5075701;28;20990;-56
2022/09/15 08:40:44;;;;;;;4.50;1.48;;;;;;;27.38;41.44;101127.41;5075878;28;20474;-50
2022/09/15 08:43:20;;;;;;;3.92;1.75;;;;;;;27.41;41.52;101139.72;5074460;28;20036;-56
2022/09/15 08:46:03;;;;;;;3.15;1.60;;;;;;;27.32;41.68;101119.50;5068307;28;20028;-52
2022/09/15 08:48:39;;;;;;;4.80;1.73;;;;;;;27.40;41.84;101146.75;5051288;28;20115;-49
2022/09/15 08:51:11;;;;;;;7.93;2.08;;;;;;;27.43;41.74;101151.13;5069867;28;20028;-49
2022/09/15 08:53:46;;;;;;;4.30;1.52;;;;;;;27.42;41.76;101145.00;5053173;28;21021;-49
2022/09/15 08:56:17;;;;;;;6.65;1.77;;;;;;;27.48;41.94;101135.34;5052710;28;20032;-52
2022/09/15 08:58:46;;;;;;;4.57;1.83;;;;;;;27.53;41.86;101138.88;5070389;28;20042;-50
2022/09/15 09:01:24;;;;;;;6.82;2.03;;;;;;;27.54;41.85;101146.81;5070248;28;20039;-52
2022/09/15 09:03:54;;;;;;;3.05;1.40;;;;;;;27.58;41.90;101150.31;5074304;28;20028;-53
2022/09/15 09:06:41;;;;;;;5.32;1.63;;;;;;;27.65;42.02;101156.47;5062896;28;20485;-51
2022/09/15 09:09:37;;;;;;;3.03;1.23;;;;;;;27.61;41.77;101155.59;5039899;28;20060;-51
2022/09/15 09:12:39;;;;;;;4.60;1.70;;;;;;;27.65;42.06;101170.50;5069726;28;20044;-50
2022/09/15 09:15:46;;;;;;;2.70;1.25;;;;;;;27.51;42.05;101144.16;5055072;28;20043;-51
2022/09/15 09:18:52;;;;;;;6.57;1.98;;;;;;;27.73;41.88;101166.13;5061530;28;20434;-53
2022/09/15 09:21:30;;;;;;;2.92;1.20;;;;;;;27.76;41.68;101175.78;5064551;28;20052;-48
2022/09/15 09:24:22;;;;;;;4.70;1.83;;;;;;;27.73;41.99;101174.03;5055232;28;20886;-56
2022/09/15 09:26:53;;;;;;;2.80;1.40;;;;;;;27.81;41.63;101171.41;5059617;28;20093;-48
2022/09/15 09:29:32;;;;;;;6.05;1.48;;;;;;;27.79;41.75;101170.53;5056518;28;20029;-49
2022/09/15 09:32:01;;;;;;;3.38;1.48;;;;;;;27.83;41.59;101180.19;5072110;28;20043;-48
2022/09/15 09:34:45;;;;;;;3.78;1.45;;;;;;;27.80;42.00;101174.91;5072710;28;20017;-52
2022/09/15 09:37:15;;;;;;;2.75;1.27;;;;;;;27.83;41.90;101177.56;5055010;28;20065;-51
2022/09/15 09:39:43;;;;;;;2.70;1.63;;;;;;;27.80;42.24;101161.72;5072655;28;20017;-51
2022/09/15 09:42:15;;;;;;;2.60;1.38;;;;;;;27.84;41.68;101165.25;5072547;28;20037;-51
2022/09/15 09:44:44;;;;;;;2.20;1.00;;;;;;;27.86;41.83;101174.03;5072695;28;20029;-53
2022/09/15 09:47:14;;;;;;;2.80;1.17;;;;;;;27.84;41.17;101170.50;5072402;28;20036;-52
2022/09/15 09:49:51;;;;;;;5.63;1.80;;;;;;;27.79;40.76;101180.19;5073144;28;20028;-52
2022/09/15 09:52:39;;;;;;;3.08;1.40;;;;;;;27.70;40.74;101174.03;5076714;28;20137;-52
2022/09/15 09:55:20;;;;;;;4.32;1.48;;;;;;;27.74;40.55;101185.44;5068477;28;20056;-49
2022/09/15 09:57:48;;;;;;;7.72;1.55;;;;;;;27.69;40.30;101172.28;5070357;28;20050;-52
2022/09/15 10:00:35;;;;;;;4.25;1.20;;;;;;;27.71;39.97;101181.06;5067734;28;20541;-47
2022/09/15 10:03:17;;;;;;;3.22;1.05;;;;;;;27.73;39.79;101174.03;5069815;28;20025;-52
2022/09/15 10:05:46;;;;;;;9.15;2.30;;;;;;;27.70;39.82;101178.44;5068770;28;20027;-51
2022/09/15 10:08:17;;;;;;;5.60;2.05;;;;;;;27.68;39.65;101169.66;5057378;28;20032;-53
2022/09/15 10:11:04;;;;;;;4.57;1.40;;;;;;;27.66;40.02;101160.84;5050736;28;20040;-51
2022/09/15 10:13:34;;;;;;;3.55;1.30;;;;;;;27.63;39.82;101163.47;5068404;28;20510;-52
2022/09/15 10:16:03;;;;;;;3.08;1.17;;;;;;;27.67;39.70;101174.03;5070752;28;20146;-56
2022/09/15 10:18:35;;;;;;;6.50;1.73;;;;;;;27.64;39.38;101174.00;5066702;28;20043;-51
2022/09/15 10:21:05;;;;;;;5.63;2.05;;;;;;;27.63;39.00;101181.94;5067315;28;20036;-53
2022/09/15 10:23:33;;;;;;;4.13;1.08;;;;;;;27.65;39.17;101188.09;5049594;28;20029;-52
2022/09/15 10:26:21;;;;;;;9.25;2.25;;;;;;;27.59;39.58;101189.81;5064915;28;20127;-48
2022/09/15 10:29:10;;;;;;;3.58;1.60;;;;;;;27.62;39.55;101183.69;5057129;28;20423;-50
2022/09/15 10:31:37;;;;;;;5.03;1.33;;;;;;;27.65;39.15;101181.03;5063619;28;20040;-53
2022/09/15 10:34:25;;;;;;;3.38;1.23;;;;;;;27.63;39.45;101182.81;5071568;28;20081;-54
2022/09/15 10:36:54;;;;;;;3.38;1.75;;;;;;;27.62;38.92;101167.88;5063863;28;20094;-48
2022/09/15 10:39:31;;;;;;;4.18;1.33;;;;;;;27.64;39.09;101179.28;5055917;28;20380;-51
2022/09/15 10:42:07;;;;;;;6.53;1.92;;;;;;;27.64;39.04;101179.28;5066964;28;20044;-52
2022/09/15 10:44:58;;;;;;;3.92;1.65;;;;;;;27.59;39.13;101184.56;5052410;28;20078;-52
2022/09/15 10:47:45;;;;;;;4.60;2.10;;;;;;;27.57;38.81;101178.41;5061753;28;20045;-53
2022/09/15 10:50:37;;;;;;;4.43;1.30;;;;;;;27.56;39.16;101175.78;5060407;28;20078;-53
2022/09/15 10:53:20;;;;;;;5.38;1.98;;;;;;;27.63;39.19;101166.13;5065356;28;20032;-51
2022/09/15 10:55:57;;;;;;;6.85;1.88;;;;;;;27.65;38.99;101165.22;5047025;28;20036;-52
2022/09/15 10:58:41;;;;;;;5.97;1.98;;;;;;;27.60;39.11;101172.28;5071116;28;20040;-51
2022/09/15 11:01:28;;;;;;;3.75;1.60;;;;;;;27.62;39.08;101165.25;5068842;28;20028;-49
2022/09/15 11:03:56;;;;;;;8.20;2.28;;;;;;;27.63;39.08;101182.81;5073077;28;20132;-53
2022/09/15 11:06:33;;;;;;;4.95;1.70;;;;;;;27.61;39.36;101176.66;5068978;28;20032;-52
2022/09/15 11:09:23;;;;;;;5.47;1.80;;;;;;;27.65;39.34;101178.41;5068790;28;20395;-55
2022/09/15 11:12:29;;;;;;;5.72;1.65;;;;;;;27.65;39.53;101181.03;5065419;28;20506;-51
2022/09/15 11:15:01;;;;;;;;;;;;;;;27.73;39.09;101186.31;5062279;28;20032;-50
2022/09/15 11:17:33;;;;;;;5.25;1.70;;;;;;;27.72;39.19;101192.47;5065595;28;19917;-50
2022/09/15 11:20:09;;;;;;;5.35;1.80;;;;;;;27.66;39.02;101189.84;5052612;28;20074;-50
2022/09/15 11:22:59;;;;;;;7.03;2.03;;;;;;;27.70;39.08;101188.97;5071389;28;20052;-49
2022/09/15 11:25:29;;;;;;;7.20;2.20;;;;;;;27.63;39.48;101188.09;5071201;28;20020;-54
2022/09/15 11:28:16;;;;;;;6.28;2.03;;;;;;;27.65;39.34;101190.72;5033574;28;20513;-47
2022/09/15 11:31:06;;;;;;;6.68;1.98;;;;;;;27.66;38.91;101188.06;5045943;28;20032;-52
2022/09/15 11:33:45;;;;;;;5.00;1.60;;;;;;;27.66;39.07;101203.88;5037330;28;20069;-49
2022/09/15 11:36:20;;;;;;;7.53;1.88;;;;;;;27.67;39.25;101194.25;5048726;28;20494;-53
2022/09/15 11:39:11;;;;;;;8.60;1.70;;;;;;;27.65;39.12;101198.63;5029877;28;20029;-52
2022/09/15 11:41:40;;;;;;;6.90;2.15;;;;;;;27.70;39.18;101195.13;5043543;28;20068;-50
2022/09/15 11:44:14;;;;;;;6.78;1.50;;;;;;;27.71;39.22;101188.97;5048915;28;20439;-52
2022/09/15 11:46:46;;;;;;;2.17;1.20;;;;;;;27.70;39.52;101195.13;5045499;28;20037;-56
2022/09/15 11:49:21;;;;;;;3.90;1.60;;;;;;;27.66;39.21;101190.72;5043950;28;20389;-50
2022/09/15 11:51:57;;;;;;;5.40;1.70;;;;;;;27.70;39.42;101194.25;5028128;28;20075;-49
2022/09/15 11:54:35;;;;;;;5.05;1.83;;;;;;;27.60;39.39;101186.31;5046366;28;20025;-57